CheckWX is a tool to help pilots better visualize weather data.  It is not intended as a substitute for an official pre-flight weather briefing.

02:37:34 UTC

KOKC TAF
Will Rogers World Airport
Oklahoma City, Oklahoma, USA
KOKC 202349Z 2100/2124 02012KT P6SM SCT030 FM210200 01007KT P6SM SKC FM211600 19009KT P6SM FEW200

Feb-21@
00:00 UTC

Feb-21 @ 00:00 UTC

Feb-21@
02:00 UTC

Feb-21 @ 02:00 UTC

KOKC 202349Z 2100/2124 02012KT P6SM SCT030

Expired

Wind
  • 020° at 12 KTS
Cloud Levels
  • Scattered at 3,000' AGL

Feb-21@
02:00 UTC

Feb-21 @ 02:00 UTC

Feb-21@
16:00 UTC

Feb-21 @ 16:00 UTC

FM210200 01007KT P6SM SKC

From

From Standard forecast or significant change

Wind
  • 010° at 7 KTS
Cloud Levels
  • Clear skies

Feb-21@
16:00 UTC

Feb-21 @ 16:00 UTC

Feb-22@
00:00 UTC

Feb-22 @ 00:00 UTC

FM211600 19009KT P6SM FEW200

From

From Standard forecast or significant change

Wind
  • 190° at 9 KTS
Cloud Levels
  • Few at 20,000' AGL